メインページ
METAR-TAF:

METAR-TAF

空港 :

ナタール, リオグランデ・ド・ノルテ州, ブラジル

緯度: 05-46-05S, 経度: 035-22-34W, 海抜: 88m

現時点の気象観測

当レポートは20分前の19:00(UTC)に作成
南/南東の風 9kt
気温 28°C
湿度 66%
気圧 1010 hPa
視程10km以上
高度2600ftの雲は散在している
高度4500ftの雲は散在している
高度7000ftの千切れ雲あり
近辺でにわか雨

METAR: SBSG 251900Z 15009KT 9999 VCSH SCT026 SCT045 BKN070 28/21 Q1010

時間: 16:20 (19:20 UTC)

予報

当レポートは3時間20分前の16:00(UTC)に作成
予報は25日の 18時(UTC)から 26日の 18時(UTC)まで有効
南/南東の風 11kt
視程: 9000m
高度2000ftの雲は散在している
確率 30% :
25日の 18時(UTC)から 25日の 20時(UTC)まで一時的に
視程: 4000m
高度1200ftの千切れ雲あり
高度2500ftの雲はほとんどない, 塔状積雲.
にわか雨
25日の 22時(UTC)から 25日の 24時(UTC)まで徐々に
南/南東の風 5kt
26日の 03時(UTC)から 26日の 04時(UTC)まで徐々に
南西の風 4kt
確率 40% :
26日の 09時(UTC)から 26日の 11時(UTC)まで一時的に
視程: 5000m
高度1700ftの千切れ雲あり
高度2500ftの雲はほとんどない, 塔状積雲.
にわか雨
26日の 12時(UTC)から 26日の 14時(UTC)まで徐々に
南/南東の風 12kt

TAF: SBSG 251600Z 2518/2618 15011KT 9000 SCT020 TN23/2608Z TX31/2616Z PROB30 TEMPO 2518/2520 4000 SHRA BKN012 FEW025TCU BECMG 2522/2524 15005KT BECMG 2603/2604 22004KT PROB40 TEMPO 2609/2611 5000 SHRA BKN017 FEW025TCU BECMG 2612/2614 16012KT RMK PEI

4,000以上の空港の気象観測と天気予報(METAR報とTAF報)

利用可能な観測所は地図上に黄色い丸と赤い丸で示す。

丸の上にカーソルを重ねると観測所名を参照できる。

次にクリックすると気象観測と天気予報を参照できる。

マップの切り替え:黒色「×」印の緑ボタンをクリックして拡大、「-」印の緑ボタンをクリックして縮小、緑色の三角印をクリックして隣りの地図に切り替え


METAR-TAF: